Saint Boniface, Pennsylvania
Current Conditions -  °F | °C
As of 6:35 PM on Monday 20 Oct 2014 (Local Time) from KIDI Reporting Station
Overcast Overcast  
Wind Chill: 54°   Ceiling: 9000
Heat Index: 54°   Visibility: 10mi
Dew Point: 41°   Wind: 6mph
Humidity: 62%   Direction: 210°SSW
Pressure: 29.93"   Gusts: NA
Location:  40.67°N, 78.68°W
Report Text: KIDI 202235Z AUTO 21005KT 10SM SCT070 OVC090 12/05 A2993 RMK A01
Loading
Personal Weather Stations






























Interactive Weather Map
Tropical Storm Tracking
New forecast layout! Learn more

10-Day Weather Forecast

Advertisements
Track Severe Weather on mobile